Green Lake, Canada
Current Conditions -  °F | °C
As of 6:00 AM on Sunday 23 Nov 2014 (Local Time) from CYLJ Reporting Station
Light Snow Light Snow  
Wind Chill: -5°   Ceiling: 1000
Heat Index:   Visibility: 2mi
Dew Point:   Wind: 9mph
Humidity: 85%   Direction: 80°E
Pressure: 29.78"   Gusts: NA
Location:  54.27°N, 107.78°W
Report Text: CYLJ 231200Z 08008KT 2SM -SN OVC010 M13/M15 A2978 RMK SC8 SN COV/MEDIUM PACK SLP119
Loading
Personal Weather Stations






























Interactive Weather Map New forecast layout! Learn more

10-Day Weather Forecast

Advertisements
Track Severe Weather on mobile